TimeEST,TemperatureF,Dew PointF,Humidity,Sea Level PressureIn,VisibilityMPH,Wind Direction,Wind SpeedMPH,Gust SpeedMPH,PrecipitationIn,Events,Conditions,WindDirDegrees,DateUTC
12:53 AM,66.0,63.0,90,30.01,10.0,Calm,Calm,-,N/A,,Clear,0,2012-12-06 05:53:00
1:53 AM,66.0,64.0,93,30.00,10.0,Calm,Calm,-,N/A,,Clear,0,2012-12-06 06:53:00
2:53 AM,64.0,63.0,96,29.99,10.0,Calm,Calm,-,N/A,,Clear,0,2012-12-06 07:53:00
3:53 AM,64.9,64.0,97,29.98,10.0,Calm,Calm,-,N/A,,Partly Cloudy,0,2012-12-06 08:53:00
4:53 AM,66.0,64.0,93,29.97,10.0,NNE,4.6,-,N/A,,Partly Cloudy,30,2012-12-06 09:53:00
5:53 AM,64.9,64.0,97,29.97,10.0,Calm,Calm,-,N/A,,Clear,0,2012-12-06 10:53:00
6:53 AM,63.0,62.1,97,29.99,9.0,Calm,Calm,-,N/A,,Clear,0,2012-12-06 11:53:00
7:53 AM,66.0,64.9,96,30.00,10.0,Calm,Calm,-,N/A,,Clear,0,2012-12-06 12:53:00
8:53 AM,69.1,66.9,93,30.01,10.0,Calm,Calm,-,N/A,,Clear,0,2012-12-06 13:53:00
9:53 AM,73.0,68.0,84,30.00,10.0,Calm,Calm,-,N/A,,Clear,0,2012-12-06 14:53:00
10:53 AM,75.9,66.9,74,30.00,10.0,Calm,Calm,-,N/A,,Clear,0,2012-12-06 15:53:00
11:53 AM,79.0,64.0,60,29.97,10.0,Calm,Calm,-,N/A,,Partly Cloudy,0,2012-12-06 16:53:00
12:53 PM,81.0,64.0,56,29.95,10.0,NW,3.5,-,N/A,,Clear,320,2012-12-06 17:53:00
1:53 PM,79.0,63.0,58,29.92,10.0,NE,5.8,-,N/A,,Partly Cloudy,50,2012-12-06 18:53:00
2:53 PM,77.0,64.0,64,29.92,10.0,ESE,8.1,-,N/A,,Overcast,110,2012-12-06 19:53:00
3:53 PM,78.1,64.0,62,29.92,10.0,ESE,9.2,-,N/A,,Overcast,120,2012-12-06 20:53:00
4:53 PM,75.9,64.9,69,29.92,10.0,SE,8.1,-,N/A,,Clear,130,2012-12-06 21:53:00
5:53 PM,73.0,64.9,76,29.94,10.0,East,4.6,-,N/A,,Mostly Cloudy,100,2012-12-06 22:53:00
6:53 PM,70.0,64.0,81,29.94,10.0,East,3.5,-,N/A,,Clear,100,2012-12-06 23:53:00
7:53 PM,69.8,64.4,83,29.96,10.0,Calm,Calm,-,N/A,,Mostly Cloudy,0,2012-12-07 00:53:00
8:53 PM,68.0,64.0,87,29.97,10.0,Calm,Calm,-,N/A,,Clear,0,2012-12-07 01:53:00
9:53 PM,66.9,64.9,93,29.96,10.0,Calm,Calm,-,N/A,,Clear,0,2012-12-07 02:53:00
10:53 PM,66.9,64.9,93,29.96,10.0,Calm,Calm,-,N/A,,Clear,0,2012-12-07 03:53:00
11:53 PM,64.0,63.0,96,29.95,10.0,Calm,Calm,-,N/A,,Clear,0,2012-12-07 04:53:00